Time;durP1;ratioP1;P1;durP2;ratioP2;P2;SDS_P1;SDS_P2;PMS_P1;PMS_P2;Temp;Humidity;BMP_temperature;BMP_pressure;BME280_temperature;BME280_humidity;BME280_pressure;Samples;Min_cycle;Max_cycle;Signal;HPM_P1;HPM_P2
2022/03/03 15:42:44;;;;;;;;;;;12.70;90.70;;;;;;5090394;27;20447;-48
2022/03/03 15:45:11;;;;;;;3.22;1.90;;;12.60;90.90;;;;;;5071678;28;19921;-49
2022/03/03 15:47:38;;;;;;;3.42;1.88;;;12.60;90.80;;;;;;5070363;28;20132;-48
2022/03/03 15:50:05;;;;;;;3.40;1.50;;;12.70;90.50;;;;;;5070042;28;20047;-49
2022/03/03 15:52:31;;;;;;;3.00;1.45;;;12.80;90.60;;;;;;5070040;28;20518;-53
2022/03/03 15:54:58;;;;;;;3.97;1.70;;;13.00;90.60;;;;;;5069764;28;20086;-53
2022/03/03 15:57:25;;;;;;;4.35;1.58;;;13.10;90.20;;;;;;5069089;28;20064;-53
2022/03/03 15:59:54;;;;;;;3.45;1.52;;;13.20;89.60;;;;;;5073056;28;20116;-51
2022/03/03 16:02:21;;;;;;;3.75;1.50;;;13.20;88.90;;;;;;5071324;28;20037;-51
2022/03/03 16:04:49;;;;;;;2.47;1.35;;;13.20;88.70;;;;;;5067080;28;20424;-49
2022/03/03 16:07:16;;;;;;;2.53;1.52;;;13.20;88.40;;;;;;5071657;28;20037;-47
2022/03/03 16:09:46;;;;;;;2.80;1.38;;;13.10;88.30;;;;;;5068742;28;20524;-50
2022/03/03 16:12:13;;;;;;;2.92;1.42;;;13.10;88.40;;;;;;5071304;28;20047;-44
2022/03/03 16:14:40;;;;;;;3.85;1.60;;;13.00;89.40;;;;;;5069246;28;20036;-54
2022/03/03 16:17:28;;;;;;;2.63;1.42;;;13.00;89.40;;;;;;5062929;28;20210;-55
2022/03/03 16:19:54;;;;;;;4.95;1.48;;;13.00;89.60;;;;;;5062483;28;20060;-50
2022/03/03 16:22:21;;;;;;;3.85;1.52;;;13.00;89.50;;;;;;5069062;28;20067;-52
2022/03/03 16:24:48;;;;;;;4.00;2.13;;;12.90;89.80;;;;;;5067800;28;20039;-54
2022/03/03 16:27:16;;;;;;;3.22;1.70;;;12.90;89.60;;;;;;5065068;28;20044;-49
2022/03/03 16:29:43;;;;;;;4.68;1.83;;;12.90;89.00;;;;;;5068176;28;20410;-53
2022/03/03 16:32:16;;;;;;;3.72;1.88;;;12.80;88.90;;;;;;5068227;28;20032;-48
2022/03/03 16:34:43;;;;;;;5.50;1.80;;;12.70;89.50;;;;;;5068892;28;20087;-50
2022/03/03 16:37:10;;;;;;;2.65;1.40;;;12.70;89.20;;;;;;5068970;28;20037;-47
2022/03/03 16:39:37;;;;;;;4.65;1.60;;;12.60;90.20;;;;;;5068584;28;20044;-50
2022/03/03 16:42:03;;;;;;;2.53;1.60;;;12.60;90.00;;;;;;5062132;28;20049;-45
2022/03/03 16:44:30;;;;;;;2.28;1.20;;;12.50;90.10;;;;;;5065706;28;20404;-48
2022/03/03 16:46:57;;;;;;;3.00;1.30;;;12.40;90.10;;;;;;5068514;28;20496;-52
2022/03/03 16:49:24;;;;;;;6.22;1.63;;;12.40;90.10;;;;;;5067099;28;20036;-48
2022/03/03 16:51:51;;;;;;;3.55;1.40;;;12.30;90.40;;;;;;5068262;28;20045;-47
2022/03/03 16:54:18;;;;;;;2.65;1.60;;;12.20;90.40;;;;;;5054710;28;20041;-53
2022/03/03 16:56:44;;;;;;;2.72;1.45;;;12.10;90.60;;;;;;5055549;28;20052;-49
2022/03/03 16:59:12;;;;;;;2.65;1.45;;;12.10;90.70;;;;;;5054949;28;20087;-45
2022/03/03 17:01:39;;;;;;;2.60;1.45;;;12.00;90.60;;;;;;5054881;28;20040;-50
2022/03/03 17:04:06;;;;;;;2.85;1.52;;;12.00;91.00;;;;;;5055043;28;20578;-50
2022/03/03 17:06:33;;;;;;;6.32;2.13;;;12.00;90.90;;;;;;5055110;28;20040;-48
2022/03/03 17:09:04;;;;;;;2.85;1.60;;;11.90;90.90;;;;;;5054841;28;20052;-51
2022/03/03 17:11:31;;;;;;;4.47;1.60;;;11.80;91.20;;;;;;5054951;28;20044;-51
2022/03/03 17:13:58;;;;;;;3.03;1.52;;;11.80;91.20;;;;;;5054860;28;20044;-52
2022/03/03 17:16:25;;;;;;;2.42;1.67;;;11.70;91.00;;;;;;5054788;28;20040;-53
2022/03/03 17:18:52;;;;;;;4.47;1.85;;;11.60;91.20;;;;;;5054674;28;20041;-47
2022/03/03 17:21:18;;;;;;;4.63;2.10;;;11.60;91.30;;;;;;5054684;28;20120;-52
2022/03/03 17:23:45;;;;;;;6.00;1.90;;;11.50;91.70;;;;;;5054920;28;20041;-53
2022/03/03 17:26:12;;;;;;;3.65;1.63;;;11.50;91.60;;;;;;5054806;28;20068;-48
2022/03/03 17:28:39;;;;;;;4.53;2.00;;;11.50;91.70;;;;;;5054662;28;20040;-56
2022/03/03 17:31:06;;;;;;;4.07;1.83;;;11.40;91.90;;;;;;5054714;28;20049;-50
2022/03/03 17:33:32;;;;;;;3.97;2.10;;;11.40;91.70;;;;;;5055643;28;20037;-52
2022/03/03 17:36:01;;;;;;;4.65;2.00;;;11.40;91.90;;;;;;5054640;28;20048;-51
2022/03/03 17:38:27;;;;;;;4.07;2.10;;;11.30;91.80;;;;;;5054548;28;20052;-52
2022/03/03 17:40:54;;;;;;;5.03;2.72;;;11.30;92.00;;;;;;5053951;28;20060;-54
2022/03/03 17:43:21;;;;;;;5.63;2.50;;;11.30;92.20;;;;;;5054399;28;20040;-49
2022/03/03 17:45:48;;;;;;;4.22;2.60;;;11.20;92.10;;;;;;5054524;28;20091;-48
2022/03/03 17:48:15;;;;;;;7.47;3.08;;;11.20;92.10;;;;;;5054457;28;20094;-47
2022/03/03 17:50:42;;;;;;;7.07;3.80;;;11.20;92.20;;;;;;5053986;28;20459;-55
2022/03/03 17:53:09;;;;;;;8.45;3.55;;;11.20;92.10;;;;;;5054145;28;20045;-47
2022/03/03 17:55:36;;;;;;;6.15;3.92;;;11.20;92.10;;;;;;5052945;28;20040;-44
2022/03/03 17:58:02;;;;;;;5.80;4.28;;;11.30;92.40;;;;;;5054112;28;20045;-49
2022/03/03 18:00:29;;;;;;;7.60;4.35;;;11.30;92.40;;;;;;5053782;28;20487;-48
2022/03/03 18:02:56;;;;;;;9.48;5.20;;;11.30;92.40;;;;;;5052619;28;20047;-50
2022/03/03 18:05:23;;;;;;;6.22;4.18;;;11.30;92.40;;;;;;5053155;28;20102;-52
2022/03/03 18:07:50;;;;;;;4.25;3.40;;;11.30;92.10;;;;;;5054350;28;20044;-51
2022/03/03 18:10:17;;;;;;;7.00;3.72;;;11.20;92.30;;;;;;5054052;28;20050;-48
2022/03/03 18:12:44;;;;;;;5.72;3.33;;;11.20;92.50;;;;;;5054182;28;20049;-48
2022/03/03 18:15:10;;;;;;;5.25;2.53;;;11.20;92.40;;;;;;5054365;28;20120;-50
2022/03/03 18:17:37;;;;;;;3.85;2.60;;;11.20;92.80;;;;;;5050314;28;20045;-51
2022/03/03 18:20:04;;;;;;;6.07;2.88;;;11.10;92.50;;;;;;5054424;28;20045;-50
2022/03/03 18:22:31;;;;;;;7.57;3.22;;;11.10;92.60;;;;;;5054024;28;20046;-53
2022/03/03 18:24:58;;;;;;;5.15;2.70;;;11.10;92.70;;;;;;5054012;28;20045;-49
2022/03/03 18:27:24;;;;;;;4.28;2.50;;;11.00;92.80;;;;;;5054210;28;20347;-51
2022/03/03 18:29:51;;;;;;;4.22;3.42;;;11.10;92.90;;;;;;5053733;28;20380;-50
2022/03/03 18:32:18;;;;;;;6.45;3.53;;;11.00;93.00;;;;;;5053875;28;20072;-52
2022/03/03 18:34:45;;;;;;;4.30;3.47;;;11.00;92.80;;;;;;5052778;28;20047;-55
2022/03/03 18:37:11;;;;;;;9.57;4.57;;;11.00;92.90;;;;;;5049889;28;20041;-52
2022/03/03 18:39:38;;;;;;;7.13;4.50;;;11.00;93.10;;;;;;5051201;28;20048;-50
2022/03/03 18:42:05;;;;;;;12.30;6.93;;;11.00;93.10;;;;;;5053122;28;20474;-54
2022/03/03 18:44:45;;;;;;;21.02;10.95;;;11.00;93.40;;;;;;5049258;28;20052;-49
2022/03/03 18:47:12;;;;;;;16.80;11.32;;;10.90;93.40;;;;;;5053585;28;20124;-54
2022/03/03 18:49:39;;;;;;;14.63;10.50;;;10.80;93.40;;;;;;5053531;28;20480;-50
2022/03/03 18:52:08;;;;;;;8.85;6.15;;;10.80;93.60;;;;;;5053320;28;20056;-52
2022/03/03 18:54:35;;;;;;;6.93;4.95;;;10.80;93.60;;;;;;5053332;28;20047;-47
2022/03/03 18:57:02;;;;;;;7.60;4.53;;;10.80;93.60;;;;;;5053358;28;20472;-51
2022/03/03 18:59:29;;;;;;;7.57;5.18;;;10.70;93.60;;;;;;5051944;28;20041;-53
2022/03/03 19:01:55;;;;;;;6.95;4.70;;;10.70;93.50;;;;;;5053201;28;20041;-47
2022/03/03 19:04:22;;;;;;;8.18;5.88;;;10.70;93.70;;;;;;5055095;28;20037;-49
2022/03/03 19:06:49;;;;;;;7.93;4.63;;;10.70;93.80;;;;;;5053134;28;20044;-55
2022/03/03 19:09:16;;;;;;;7.78;4.97;;;10.60;93.70;;;;;;5053128;28;20033;-53
2022/03/03 19:11:43;;;;;;;9.23;5.03;;;10.60;93.90;;;;;;5053201;28;20047;-54
2022/03/03 19:14:10;;;;;;;8.18;6.10;;;10.60;93.90;;;;;;5053241;28;20123;-55
2022/03/03 19:16:37;;;;;;;9.50;4.72;;;10.60;93.90;;;;;;5054443;28;20103;-51
2022/03/03 19:19:04;;;;;;;7.22;4.97;;;10.60;94.10;;;;;;5052986;28;20068;-54
2022/03/03 19:21:29;;;;;;;6.93;5.00;;;10.60;94.20;;;;;;5053049;28;20029;-51
2022/03/03 19:23:56;;;;;;;7.47;5.47;;;10.60;94.10;;;;;;5053224;28;20037;-55
2022/03/03 19:26:23;;;;;;;7.18;5.30;;;10.50;94.00;;;;;;5053237;28;20427;-51
2022/03/03 19:28:50;;;;;;;7.00;6.18;;;10.50;94.00;;;;;;5052853;28;20048;-52
2022/03/03 19:31:17;;;;;;;5.75;4.70;;;10.50;94.10;;;;;;5053152;28;20037;-47
2022/03/03 19:36:29;;;;;;;9.82;6.82;;;10.60;94.10;;;;;;5048918;28;20127;-52
2022/03/03 19:38:57;;;;;;;6.47;5.10;;;10.50;94.10;;;;;;5052952;28;20044;-51
2022/03/03 19:41:24;;;;;;;5.78;5.05;;;10.50;94.20;;;;;;5052612;28;20049;-48
2022/03/03 19:43:50;;;;;;;7.13;4.90;;;10.60;94.10;;;;;;5056478;28;20040;-46
2022/03/03 19:46:17;;;;;;;8.27;5.53;;;10.60;94.10;;;;;;5052724;28;20041;-48
2022/03/03 19:48:44;;;;;;;7.97;5.93;;;10.50;94.10;;;;;;5052662;28;20033;-53
2022/03/03 19:51:11;;;;;;;46.47;32.22;;;10.60;94.10;;;;;;5052683;28;20037;-54
2022/03/03 19:53:38;;;;;;;13.93;11.32;;;10.60;94.10;;;;;;5052750;28;20071;-49
2022/03/03 19:56:05;;;;;;;8.45;6.63;;;10.60;94.00;;;;;;5053005;28;20049;-53
2022/03/03 19:58:31;;;;;;;6.72;5.25;;;10.60;94.10;;;;;;5055284;28;20484;-49
2022/03/03 20:00:58;;;;;;;7.90;6.75;;;10.60;94.00;;;;;;5052363;28;20041;-51
2022/03/03 20:03:25;;;;;;;8.63;6.55;;;10.60;94.10;;;;;;5052552;28;20045;-53
2022/03/03 20:05:52;;;;;;;11.13;7.30;;;10.60;93.90;;;;;;5052804;28;20444;-47
2022/03/03 20:08:19;;;;;;;11.88;7.50;;;10.70;94.20;;;;;;5052580;28;20048;-47
2022/03/03 20:10:55;;;;;;;10.65;8.80;;;10.70;94.00;;;;;;5052397;28;20468;-54
2022/03/03 20:13:22;;;;;;;8.82;7.60;;;10.70;93.80;;;;;;5052449;28;20053;-47
2022/03/03 20:15:49;;;;;;;8.57;7.78;;;10.70;93.90;;;;;;5052524;28;20048;-52
2022/03/03 20:18:16;;;;;;;16.98;14.85;;;10.70;93.90;;;;;;5052023;28;20458;-49
2022/03/03 20:21:03;;;;;;;15.57;11.73;;;10.70;93.80;;;;;;5049061;28;20063;-49
